Time;durP1;ratioP1;P1;durP2;ratioP2;P2;SDS_P1;SDS_P2;PMS_P1;PMS_P2;Temp;Humidity;BMP_temperature;BMP_pressure;BME280_temperature;BME280_humidity;BME280_pressure;Samples;Min_cycle;Max_cycle;Signal;HPM_P1;HPM_P2
2023/11/13 00:01:44;;;;;;;11.60;8.30;;;;;;;5.99;91.77;98818.94;105553;1259;234254;-75
2023/11/13 00:06:59;;;;;;;10.40;7.90;;;;;;;5.91;90.10;98818.13;103426;1286;601826;-73
2023/11/13 00:09:27;;;;;;;10.90;7.30;;;;;;;5.88;90.12;98825.17;105135;1267;61759;-72
2023/11/13 00:11:55;;;;;;;10.90;8.20;;;;;;;5.84;89.65;98825.88;105009;1272;60078;-74
2023/11/13 00:14:22;;;;;;;8.60;7.00;;;;;;;5.75;89.94;98825.43;104989;1271;70632;-74
2023/11/13 00:16:50;;;;;;;10.20;7.60;;;;;;;5.69;90.21;98831.16;105045;1272;70475;-76
2023/11/13 00:19:17;;;;;;;11.00;7.80;;;;;;;5.68;89.77;98835.29;105069;1271;71428;-78
2023/11/13 00:21:45;;;;;;;10.40;7.80;;;;;;;5.67;90.21;98835.74;104867;1267;222565;-80
2023/11/13 00:24:13;;;;;;;9.90;7.70;;;;;;;5.61;90.46;98834.59;105034;1267;59365;-76
2023/11/13 00:26:40;;;;;;;9.70;6.60;;;;;;;5.61;89.84;98839.20;105055;1266;72287;-76
2023/11/13 00:29:08;;;;;;;10.10;7.50;;;;;;;5.66;89.48;98844.36;104921;1271;70402;-76
2023/11/13 00:31:35;;;;;;;9.20;6.90;;;;;;;5.65;89.90;98848.96;104954;1266;72934;-75
2023/11/13 00:34:03;;;;;;;8.00;6.00;;;;;;;5.68;89.75;98852.90;104886;1266;60399;-74
2023/11/13 00:36:30;;;;;;;7.60;6.10;;;;;;;5.72;89.11;98855.13;104968;1270;59837;-73
2023/11/13 00:38:59;;;;;;;8.50;6.80;;;;;;;5.67;88.61;98858.38;104954;1267;73834;-72
2023/11/13 00:41:31;;;;;;;14.30;7.30;;;;;;;5.67;88.73;98859.69;104946;1271;68128;-75
2023/11/13 00:44:01;;;;;;;9.00;6.50;;;;;;;5.72;89.68;98862.54;105142;1270;72683;-72
2023/11/13 00:46:29;;;;;;;8.70;6.60;;;;;;;5.75;89.52;98869.58;105194;1267;59697;-73
2023/11/13 00:48:56;;;;;;;7.90;6.00;;;;;;;5.74;88.91;98873.05;105162;1266;61274;-73
2023/11/13 00:51:24;;;;;;;8.30;6.50;;;;;;;5.74;89.39;98871.14;105067;1270;73056;-72
2023/11/13 00:53:51;;;;;;;7.10;6.10;;;;;;;5.76;89.03;98873.55;105143;1269;70048;-74
2023/11/13 00:56:19;;;;;;;9.60;6.90;;;;;;;5.73;88.73;98875.02;105128;1269;72590;-75
2023/11/13 00:58:46;;;;;;;13.30;7.50;;;;;;;5.73;88.73;98877.45;105073;1267;61691;-73
2023/11/13 01:01:14;;;;;;;8.30;6.20;;;;;;;5.78;89.03;98880.39;105799;1258;60148;-73
2023/11/13 01:03:42;;;;;;;7.20;5.80;;;;;;;5.79;89.28;98883.15;105885;1254;72060;-71
2023/11/13 01:06:15;;;;;;;10.20;6.50;;;;;;;5.76;88.58;98887.42;105879;1258;68702;-74
2023/11/13 01:08:44;;;;;;;9.10;6.10;;;;;;;5.75;87.95;98890.88;105964;1254;72760;-72
2023/11/13 01:11:11;;;;;;;9.30;6.40;;;;;;;5.79;88.41;98887.61;105939;1257;62442;-73
2023/11/13 01:13:39;;;;;;;8.30;6.40;;;;;;;5.82;88.99;98893.12;105728;1253;59585;-74
2023/11/13 01:16:07;;;;;;;9.70;6.70;;;;;;;5.78;88.32;98900.71;105641;1254;71805;-75
2023/11/13 01:18:34;;;;;;;9.50;6.80;;;;;;;5.78;89.20;98900.31;105815;1255;68742;-75
2023/11/13 01:21:03;;;;;;;9.40;6.70;;;;;;;5.81;88.83;98898.81;105782;1260;71155;-76
2023/11/13 01:23:30;;;;;;;8.60;6.60;;;;;;;5.79;89.63;98905.77;105556;1260;59628;-73
2023/11/13 01:25:58;;;;;;;9.10;6.80;;;;;;;5.78;88.88;98910.52;105650;1258;59704;-73
2023/11/13 01:28:25;;;;;;;9.50;7.50;;;;;;;5.81;89.06;98912.38;105765;1259;73057;-75
2023/11/13 01:30:53;;;;;;;9.20;6.70;;;;;;;5.81;89.25;98912.55;105911;1257;69300;-75
2023/11/13 01:33:21;;;;;;;10.90;7.60;;;;;;;5.80;89.15;98915.81;105762;1259;71740;-75
2023/11/13 01:35:49;;;;;;;10.60;7.90;;;;;;;5.74;89.09;98917.27;105872;1257;60033;-72
2023/11/13 01:38:17;;;;;;;9.30;7.40;;;;;;;5.74;89.42;98923.48;105935;1254;60106;-75
2023/11/13 01:40:46;;;;;;;9.90;7.90;;;;;;;5.78;88.91;98929.84;105908;1259;71780;-75
2023/11/13 01:43:18;;;;;;;11.90;8.20;;;;;;;5.77;88.36;98928.91;105989;1260;68826;-72
2023/11/13 01:45:55;;;;;;;11.00;7.60;;;;;;;5.70;88.94;98931.02;106031;1258;72759;-74
2023/11/13 01:48:23;;;;;;;11.40;8.30;;;;;;;5.72;88.96;98931.19;105810;1254;62021;-73
2023/11/13 01:50:51;;;;;;;11.40;7.40;;;;;;;5.74;89.10;98929.77;105866;1255;59557;-72
2023/11/13 01:53:23;;;;;;;12.50;8.20;;;;;;;5.68;89.46;98925.60;105970;1258;72237;-73
2023/11/13 01:55:55;;;;;;;9.90;8.20;;;;;;;5.68;89.57;98928.05;105894;1260;68964;-75
2023/11/13 01:58:23;;;;;;;11.50;8.40;;;;;;;5.74;89.08;98935.58;105949;1254;72765;-74
2023/11/13 02:00:50;;;;;;;11.80;9.10;;;;;;;5.70;88.88;98937.53;106049;1260;59540;-75
2023/11/13 02:03:18;;;;;;;12.30;9.10;;;;;;;5.67;89.18;98946.74;106088;1256;59587;-74
2023/11/13 02:05:45;;;;;;;12.80;9.20;;;;;;;5.72;89.25;98948.63;105814;1260;71815;-73
2023/11/13 02:08:13;;;;;;;12.90;9.80;;;;;;;5.72;89.05;98951.73;105783;1257;70829;-73
2023/11/13 02:10:41;;;;;;;17.60;10.40;;;;;;;5.67;89.10;98959.13;105938;1257;71664;-73
2023/11/13 02:13:11;;;;;;;12.90;9.20;;;;;;;5.68;89.41;98961.15;105781;1260;60477;-73
2023/11/13 02:15:41;;;;;;;13.80;9.60;;;;;;;5.73;89.34;98957.41;105943;1254;59744;-73
2023/11/13 02:18:09;;;;;;;13.60;9.70;;;;;;;5.75;88.84;98957.59;105892;1255;73355;-70
2023/11/13 02:20:37;;;;;;;14.30;9.70;;;;;;;5.75;89.41;98959.38;105872;1255;68744;-72
2023/11/13 02:23:06;;;;;;;13.30;9.80;;;;;;;5.81;89.26;98966.88;105765;1260;71393;-71
2023/11/13 02:25:37;;;;;;;16.20;11.40;;;;;;;5.82;89.11;98969.36;105736;1260;59913;-72
2023/11/13 02:28:06;;;;;;;15.80;11.10;;;;;;;5.79;89.48;98971.31;106330;1256;59740;-74
2023/11/13 02:30:37;;;;;;;17.80;12.10;;;;;;;5.81;89.18;98976.34;106179;1254;71755;-73
2023/11/13 02:33:05;;;;;;;15.10;12.00;;;;;;;5.79;89.62;98976.33;106369;1254;69985;-74
2023/11/13 02:35:33;;;;;;;15.60;11.20;;;;;;;5.78;89.50;98982.09;106463;1254;71924;-72
2023/11/13 02:38:01;;;;;;;16.00;11.00;;;;;;;5.83;89.53;98988.77;106033;1260;60453;-74
2023/11/13 02:40:28;;;;;;;17.20;11.70;;;;;;;5.84;88.99;98985.98;106031;1259;59601;-75
2023/11/13 02:42:56;;;;;;;15.10;11.20;;;;;;;5.79;89.11;98990.36;106015;1254;71852;-72
2023/11/13 02:45:23;;;;;;;16.50;11.60;;;;;;;5.77;89.57;98992.20;106906;1254;70126;-72
2023/11/13 02:47:54;;;;;;;16.00;12.00;;;;;;;5.80;88.97;98992.41;107009;1258;71088;-72
2023/11/13 02:50:23;;;;;;;19.90;12.50;;;;;;;5.78;88.78;98994.35;106036;1254;59651;-73
2023/11/13 02:52:51;;;;;;;17.50;13.30;;;;;;;5.73;89.18;98989.92;105952;1254;59746;-73
2023/11/13 02:55:19;;;;;;;17.50;12.70;;;;;;;5.76;89.42;98992.69;105972;1254;72316;-73
2023/11/13 02:57:48;;;;;;;18.60;14.30;;;;;;;5.76;89.45;99001.38;105818;1260;71069;-72
2023/11/13 03:00:15;;;;;;;18.80;13.40;;;;;;;5.69;89.80;98998.91;105909;1254;70353;-72
2023/11/13 03:02:43;;;;;;;16.00;12.80;;;;;;;5.70;89.81;99006.38;105857;1261;60535;-72
2023/11/13 03:05:10;;;;;;;18.30;12.70;;;;;;;5.75;90.36;99001.35;105994;1260;59639;-72
2023/11/13 03:07:38;;;;;;;18.10;13.40;;;;;;;5.73;89.83;99009.92;106192;1255;73120;-71
2023/11/13 03:10:06;;;;;;;16.90;12.00;;;;;;;5.69;90.13;99011.20;106208;1254;69370;-71
2023/11/13 03:12:33;;;;;;;17.50;12.90;;;;;;;5.75;90.12;99013.44;106039;1259;70092;-71
2023/11/13 03:15:01;;;;;;;19.80;13.80;;;;;;;5.78;90.35;99015.80;105855;1260;59730;-72
2023/11/13 03:17:28;;;;;;;16.30;13.50;;;;;;;5.75;90.89;99018.96;105940;1260;59622;-72
2023/11/13 03:19:56;;;;;;;20.50;14.70;;;;;;;5.72;90.07;99019.44;105866;1258;75435;-72
2023/11/13 03:22:24;;;;;;;18.40;13.80;;;;;;;5.77;90.08;99017.70;105810;1259;70474;-75
2023/11/13 03:24:51;;;;;;;18.20;13.30;;;;;;;5.79;89.61;99023.11;105915;1260;71266;-73
2023/11/13 03:27:19;;;;;;;22.10;13.60;;;;;;;5.72;89.65;99026.40;106145;1257;60104;-73
2023/11/13 03:29:46;;;;;;;20.90;14.70;;;;;;;5.67;89.53;99027.09;106078;1257;59656;-73
2023/11/13 03:32:14;;;;;;;17.60;14.90;;;;;;;5.68;89.75;99025.19;106108;1254;73535;-74
2023/11/13 03:34:42;;;;;;;19.50;14.80;;;;;;;5.68;89.08;99033.10;106173;1260;69005;-74
2023/11/13 03:37:10;;;;;;;20.00;14.20;;;;;;;5.65;89.95;99033.59;106005;1261;72902;-74
2023/11/13 03:39:37;;;;;;;22.10;14.70;;;;;;;5.68;89.68;99038.45;106067;1254;62686;-73
2023/11/13 03:42:05;;;;;;;19.50;14.40;;;;;;;5.69;90.03;99035.43;106187;1254;60070;-74
2023/11/13 03:44:32;;;;;;;20.90;14.60;;;;;;;5.65;89.69;99043.77;106097;1254;71761;-74
2023/11/13 03:47:00;;;;;;;20.50;14.90;;;;;;;5.63;89.27;99045.37;106109;1254;70021;-74
2023/11/13 03:49:27;;;;;;;20.80;15.70;;;;;;;5.65;89.38;99049.56;106181;1260;71580;-74
2023/11/13 03:51:55;;;;;;;21.00;14.80;;;;;;;5.67;89.66;99053.64;106578;1254;59728;-72
2023/11/13 03:54:23;;;;;;;18.40;14.00;;;;;;;5.63;90.06;99054.92;108095;1254;60333;-75
2023/11/13 03:56:50;;;;;;;18.70;15.10;;;;;;;5.62;90.30;99053.20;109072;1254;73661;-75
2023/11/13 03:59:18;;;;;;;17.90;14.10;;;;;;;5.71;90.30;99061.61;109035;1254;68737;-76
2023/11/13 04:01:47;;;;;;;21.00;14.50;;;;;;;5.78;90.56;99066.92;109093;1253;71293;-75
2023/11/13 04:04:15;;;;;;;22.80;15.70;;;;;;;5.76;90.19;99066.76;109050;1254;58840;-72
2023/11/13 04:06:46;;;;;;;19.50;14.70;;;;;;;5.76;89.82;99075.55;109145;1253;58466;-74
2023/11/13 04:09:14;;;;;;;19.00;14.30;;;;;;;5.84;89.89;99070.73;109306;1253;72063;-74
2023/11/13 04:11:43;;;;;;;17.90;13.50;;;;;;;5.86;88.48;99078.39;109183;1254;68944;-77
2023/11/13 04:14:10;;;;;;;21.30;13.40;;;;;;;5.85;88.50;99080.68;109082;1253;71546;-74
2023/11/13 04:16:38;;;;;;;18.60;13.30;;;;;;;5.87;88.88;99075.89;109120;1253;60682;-74
2023/11/13 04:19:06;;;;;;;17.70;14.00;;;;;;;5.94;88.73;99084.67;109046;1253;58735;-73
2023/11/13 04:21:33;;;;;;;20.10;13.60;;;;;;;5.90;89.10;99087.54;108995;1253;72605;-73
2023/11/13 04:24:01;;;;;;;19.70;13.10;;;;;;;5.88;89.12;99084.23;109286;1253;69218;-73
2023/11/13 04:26:29;;;;;;;16.00;12.90;;;;;;;5.92;88.59;99088.02;109037;1253;71216;-72
2023/11/13 04:28:56;;;;;;;18.70;13.40;;;;;;;5.95;88.70;99094.44;109158;1256;58883;-75
2023/11/13 04:31:24;;;;;;;16.60;12.50;;;;;;;5.89;88.48;99099.39;109114;1254;57939;-73
2023/11/13 04:33:51;;;;;;;17.40;13.20;;;;;;;5.86;88.02;99106.52;109106;1253;72597;-74
2023/11/13 04:36:20;;;;;;;15.80;12.40;;;;;;;5.90;88.67;99102.27;109250;1254;69059;-73
2023/11/13 04:38:48;;;;;;;17.20;14.30;;;;;;;5.89;88.62;99109.39;109233;1253;71761;-73
2023/11/13 04:41:16;;;;;;;17.20;12.70;;;;;;;5.84;88.86;99114.31;109198;1253;60434;-73
2023/11/13 04:43:44;;;;;;;19.90;14.00;;;;;;;5.86;89.02;99109.85;109316;1254;58982;-73
2023/11/13 04:46:12;;;;;;;17.60;13.10;;;;;;;5.88;88.66;99122.16;109129;1253;73054;-75
2023/11/13 04:48:40;;;;;;;16.30;13.10;;;;;;;5.81;88.62;99128.63;109190;1253;68805;-78
2023/11/13 04:51:08;;;;;;;15.40;12.60;;;;;;;5.77;89.04;99132.95;109214;1255;72088;-75
2023/11/13 04:53:35;;;;;;;18.30;12.70;;;;;;;5.80;89.02;99139.99;109006;1253;58890;-74
2023/11/13 04:56:03;;;;;;;17.00;12.30;;;;;;;5.74;89.44;99139.17;109212;1254;58726;-76
2023/11/13 04:58:32;;;;;;;17.60;11.60;;;;;;;5.71;89.06;99140.94;108954;1253;72601;-74
2023/11/13 05:01:00;;;;;;;15.50;11.70;;;;;;;5.74;89.10;99146.95;108780;1254;70000;-74
2023/11/13 05:03:27;;;;;;;18.90;12.20;;;;;;;5.69;88.70;99152.15;108654;1255;71408;-72
2023/11/13 05:05:55;;;;;;;18.50;12.90;;;;;;;5.59;89.15;99154.38;108037;1259;60383;-73
2023/11/13 05:08:23;;;;;;;16.10;12.50;;;;;;;5.57;89.06;99150.75;108249;1254;59119;-73
2023/11/13 05:10:51;;;;;;;14.10;11.40;;;;;;;5.58;89.42;99154.13;109160;1253;72372;-72
2023/11/13 05:13:19;;;;;;;15.10;12.10;;;;;;;5.60;90.12;99159.41;109163;1253;68708;-73
2023/11/13 05:15:46;;;;;;;18.60;13.20;;;;;;;5.59;89.89;99157.00;109104;1253;71971;-75
2023/11/13 05:18:14;;;;;;;17.00;12.20;;;;;;;5.62;89.29;99165.17;109104;1253;60488;-71
2023/11/13 05:20:45;;;;;;;15.80;12.00;;;;;;;5.63;88.37;99169.80;109229;1254;58974;-72
2023/11/13 05:23:13;;;;;;;17.30;11.60;;;;;;;5.60;88.91;99161.48;108912;1254;72605;-73
2023/11/13 05:25:41;;;;;;;14.70;11.80;;;;;;;5.53;89.10;99165.34;109108;1253;68717;-72
2023/11/13 05:28:09;;;;;;;16.50;12.30;;;;;;;5.49;89.03;99164.31;109030;1253;71383;-74
2023/11/13 05:30:38;;;;;;;16.10;12.20;;;;;;;5.53;89.37;99170.45;109043;1253;60407;-70
2023/11/13 05:33:05;;;;;;;17.50;13.00;;;;;;;5.53;89.28;99176.61;109187;1254;59052;-73
2023/11/13 05:35:33;;;;;;;16.40;11.80;;;;;;;5.46;88.97;99182.86;108975;1253;72919;-74
2023/11/13 05:38:00;;;;;;;18.60;12.20;;;;;;;5.44;88.57;99187.25;109156;1253;67886;-73
2023/11/13 05:40:31;;;;;;;16.40;13.30;;;;;;;5.44;88.37;99190.61;109007;1253;71892;-74
2023/11/13 05:42:59;;;;;;;16.20;12.50;;;;;;;5.37;88.90;99195.14;108955;1253;61008;-74
2023/11/13 05:45:29;;;;;;;15.30;11.50;;;;;;;5.38;89.40;99193.34;108981;1253;59016;-73
2023/11/13 05:47:56;;;;;;;15.50;12.60;;;;;;;5.39;89.05;99197.40;109045;1253;74925;-73
2023/11/13 05:50:24;;;;;;;17.30;11.70;;;;;;;5.33;88.59;99202.73;108496;1253;68724;-73
2023/11/13 05:52:51;;;;;;;17.10;11.80;;;;;;;5.29;89.05;99202.43;106033;1256;72690;-76
2023/11/13 05:55:19;;;;;;;15.80;11.90;;;;;;;5.33;89.24;99209.61;109103;1253;59114;-73
2023/11/13 05:57:46;;;;;;;17.10;12.70;;;;;;;5.27;88.84;99214.30;109151;1254;58769;-74
2023/11/13 06:00:16;;;;;;;15.90;12.00;;;;;;;5.26;88.97;99212.55;108978;1254;71962;-76
2023/11/13 06:02:48;;;;;;;14.50;12.70;;;;;;;5.26;88.84;99223.27;109203;1253;68925;-77
2023/11/13 06:05:16;;;;;;;16.40;11.90;;;;;;;5.20;88.94;99226.63;109012;1254;71192;-77
2023/11/13 06:07:45;;;;;;;15.60;12.00;;;;;;;5.18;89.02;99229.60;108941;1254;61082;-77
2023/11/13 06:10:14;;;;;;;16.30;10.50;;;;;;;5.22;89.20;99223.59;109061;1253;59405;-78
2023/11/13 06:12:45;;;;;;;16.90;11.90;;;;;;;5.24;89.03;99229.21;109109;1259;72385;-77
2023/11/13 06:15:16;;;;;;;15.60;12.00;;;;;;;5.20;89.40;99230.54;109121;1254;68938;-75
2023/11/13 06:17:44;;;;;;;15.00;12.10;;;;;;;5.22;89.33;99238.03;109043;1253;71285;-75
2023/11/13 06:20:19;;;;;;;15.60;11.80;;;;;;;5.26;88.51;99240.62;108921;1253;60673;-75
2023/11/13 06:22:47;;;;;;;15.70;12.60;;;;;;;5.25;88.26;99244.06;109153;1253;59224;-74
2023/11/13 06:25:15;;;;;;;17.20;12.40;;;;;;;5.19;88.64;99249.21;108961;1253;72509;-75
2023/11/13 06:27:43;;;;;;;15.80;12.20;;;;;;;5.19;88.93;99250.60;108946;1253;69272;-72
2023/11/13 06:30:12;;;;;;;16.20;12.40;;;;;;;5.23;88.82;99252.30;108614;1253;71353;-73
2023/11/13 06:32:41;;;;;;;14.90;11.70;;;;;;;5.17;88.42;99257.44;108298;1254;60360;-76
2023/11/13 06:35:11;;;;;;;16.30;11.90;;;;;;;5.14;88.66;99259.27;107230;1253;59240;-75
2023/11/13 06:37:41;;;;;;;15.20;12.00;;;;;;;5.16;88.11;99264.20;106099;1254;72655;-74
2023/11/13 06:40:09;;;;;;;16.30;12.40;;;;;;;5.18;88.65;99255.80;105906;1254;70647;-74
2023/11/13 06:42:37;;;;;;;16.60;11.60;;;;;;;5.15;89.29;99255.86;105740;1254;72405;-75
2023/11/13 06:45:06;;;;;;;15.60;12.50;;;;;;;5.15;89.49;99258.55;105905;1253;60612;-75
2023/11/13 06:47:33;;;;;;;14.60;11.10;;;;;;;5.21;89.19;99260.38;105767;1259;60481;-73
2023/11/13 06:50:02;;;;;;;16.40;11.40;;;;;;;5.25;88.64;99258.23;105810;1256;72653;-80
2023/11/13 06:52:31;;;;;;;14.80;12.30;;;;;;;5.24;88.30;99262.45;105806;1261;69208;-80
2023/11/13 06:54:59;;;;;;;15.70;12.90;;;;;;;5.21;88.90;99264.62;105861;1254;72979;-77
2023/11/13 06:57:27;;;;;;;15.80;12.60;;;;;;;5.28;88.81;99265.21;105878;1255;61755;-81
2023/11/13 06:59:55;;;;;;;15.80;12.10;;;;;;;5.38;88.98;99266.70;105751;1254;60876;-78
2023/11/13 07:02:26;;;;;;;14.60;12.50;;;;;;;5.40;88.21;99272.09;106516;1253;74200;-79
2023/11/13 07:04:54;;;;;;;14.50;11.40;;;;;;;5.44;87.77;99275.46;106167;1253;70043;-80
2023/11/13 07:07:22;;;;;;;12.80;11.40;;;;;;;5.55;87.69;99272.83;106401;1254;72474;-79
2023/11/13 07:09:50;;;;;;;15.70;12.00;;;;;;;5.60;87.42;99278.31;106095;1254;60435;-82
2023/11/13 07:12:17;;;;;;;13.30;10.90;;;;;;;5.59;86.74;99283.13;105826;1254;62080;-81
2023/11/13 07:14:45;;;;;;;14.00;11.20;;;;;;;5.62;85.82;99299.50;105874;1255;73821;-81
2023/11/13 07:17:12;;;;;;;16.50;12.50;;;;;;;5.66;85.74;99287.77;106012;1259;70595;-80
2023/11/13 07:19:40;;;;;;;13.50;11.00;;;;;;;5.63;85.79;99288.87;105838;1257;72812;-80
2023/11/13 07:22:08;;;;;;;12.20;10.30;;;;;;;5.58;85.33;99286.24;105947;1254;61724;-80
2023/11/13 07:24:37;;;;;;;14.20;10.50;;;;;;;5.62;85.41;99289.40;105848;1256;60409;-80
2023/11/13 07:27:05;;;;;;;12.10;10.60;;;;;;;5.66;85.10;99277.17;105806;1254;72919;-80
2023/11/13 07:29:36;;;;;;;11.80;10.10;;;;;;;5.63;84.94;99283.46;105981;1253;70331;-81
2023/11/13 07:32:04;;;;;;;12.10;9.70;;;;;;;5.63;85.59;99279.91;106002;1253;71462;-79
2023/11/13 07:34:32;;;;;;;12.50;10.40;;;;;;;5.71;84.85;99284.94;106144;1257;60457;-80
2023/11/13 07:37:00;;;;;;;11.80;10.10;;;;;;;5.78;84.91;99285.23;106294;1253;60518;-77
2023/11/13 07:39:28;;;;;;;12.50;10.10;;;;;;;5.75;85.03;99285.66;106273;1253;72872;-77
2023/11/13 07:41:58;;;;;;;14.50;10.60;;;;;;;5.78;85.40;99286.39;106047;1254;70179;-81
2023/11/13 07:44:26;;;;;;;12.70;9.30;;;;;;;5.88;85.28;99283.00;105852;1256;71563;-80
2023/11/13 07:46:54;;;;;;;13.50;10.30;;;;;;;5.90;84.45;99291.17;106159;1257;60537;-78
2023/11/13 07:49:21;;;;;;;13.40;10.40;;;;;;;5.96;84.95;99287.66;106007;1254;61981;-80
2023/11/13 07:51:49;;;;;;;12.60;10.20;;;;;;;6.11;84.92;99292.71;105920;1253;74340;-78
2023/11/13 07:54:17;;;;;;;12.20;9.80;;;;;;;6.17;83.86;99293.00;105917;1254;70475;-77
2023/11/13 07:56:44;;;;;;;13.60;10.20;;;;;;;6.20;83.67;99296.73;105934;1253;72400;-79
2023/11/13 07:59:13;;;;;;;11.80;9.40;;;;;;;6.33;83.99;99293.39;106009;1253;60401;-79
2023/11/13 08:01:41;;;;;;;13.50;10.20;;;;;;;6.43;83.43;99294.13;105938;1255;60537;-78
2023/11/13 08:04:08;;;;;;;11.70;9.40;;;;;;;6.48;83.48;99294.36;105801;1255;75019;-78
2023/11/13 08:06:36;;;;;;;12.20;9.50;;;;;;;6.61;82.99;99300.14;105879;1253;72202;-80
2023/11/13 08:09:07;;;;;;;11.70;9.90;;;;;;;6.71;81.91;99296.70;105907;1253;70736;-79
2023/11/13 08:11:36;;;;;;;14.10;10.90;;;;;;;6.73;81.83;99294.90;106000;1254;60489;-80
2023/11/13 08:14:04;;;;;;;11.40;10.00;;;;;;;6.77;81.77;99297.45;106079;1254;60421;-80
2023/11/13 08:16:32;;;;;;;10.60;9.40;;;;;;;6.90;80.90;99303.05;106032;1254;72589;-80
2023/11/13 08:19:00;;;;;;;13.80;10.70;;;;;;;6.93;79.87;99303.94;106129;1257;69031;-82
2023/11/13 08:21:31;;;;;;;13.00;11.00;;;;;;;6.90;80.53;99299.36;106335;1253;71752;-80
2023/11/13 08:23:58;;;;;;;11.90;9.90;;;;;;;6.97;79.77;99300.19;106127;1259;60829;-81
2023/11/13 08:26:32;;;;;;;11.20;10.00;;;;;;;7.14;79.89;99295.30;105978;1253;61341;-80
2023/11/13 08:29:00;;;;;;;12.70;10.60;;;;;;;7.24;79.75;99294.60;106063;1253;75923;-80
2023/11/13 08:31:28;;;;;;;10.60;9.40;;;;;;;7.36;79.69;99296.06;105967;1258;71437;-81
2023/11/13 08:33:56;;;;;;;12.20;10.00;;;;;;;7.52;77.84;99296.67;105808;1254;72747;-79
2023/11/13 08:36:28;;;;;;;12.70;11.10;;;;;;;7.60;77.57;99290.59;106162;1254;60431;-81
2023/11/13 08:38:56;;;;;;;13.50;9.60;;;;;;;7.59;77.55;99289.98;105864;1254;60429;-79
2023/11/13 08:41:23;;;;;;;10.90;9.70;;;;;;;7.62;76.89;99290.50;105850;1253;73989;-78
2023/11/13 08:43:52;;;;;;;11.70;9.70;;;;;;;7.71;76.46;99296.64;105894;1255;69547;-77
2023/11/13 08:46:21;;;;;;;12.80;9.90;;;;;;;7.68;75.65;99298.19;106329;1253;72750;-78
2023/11/13 08:48:50;;;;;;;13.10;9.90;;;;;;;7.58;75.49;99301.17;106036;1257;60521;-77
2023/11/13 08:51:23;;;;;;;12.00;9.10;;;;;;;7.53;75.72;99303.95;105960;1253;60515;-79
2023/11/13 08:53:51;;;;;;;11.20;9.80;;;;;;;7.65;76.04;99284.92;105808;1259;72419;-80
2023/11/13 08:56:18;;;;;;;12.30;11.00;;;;;;;7.76;75.73;99283.27;105834;1257;68845;-80
2023/11/13 08:58:46;;;;;;;12.40;10.60;;;;;;;7.95;74.72;99284.47;105784;1254;70893;-79
2023/11/13 09:01:15;;;;;;;14.60;10.80;;;;;;;8.27;72.49;99299.23;105789;1253;59200;-79
2023/11/13 09:03:43;;;;;;;12.80;11.30;;;;;;;8.54;71.64;99292.86;105956;1253;60533;-77
2023/11/13 09:06:13;;;;;;;13.20;10.50;;;;;;;8.88;71.85;99287.36;105821;1254;74356;-79
2023/11/13 09:08:43;;;;;;;11.40;10.10;;;;;;;9.45;70.67;99282.29;105994;1253;72390;-80
2023/11/13 09:11:16;;;;;;;11.40;10.20;;;;;;;9.97;67.95;99287.20;106018;1257;72828;-80
2023/11/13 09:13:46;;;;;;;10.60;9.40;;;;;;;10.24;66.84;99283.48;106047;1253;60746;-79
2023/11/13 09:16:14;;;;;;;11.20;8.70;;;;;;;10.43;67.26;99286.35;106061;1253;62340;-79
2023/11/13 09:18:42;;;;;;;12.80;9.30;;;;;;;10.53;66.68;99285.56;105881;1254;74068;-79
2023/11/13 09:21:10;;;;;;;9.40;8.40;;;;;;;10.48;66.01;99283.55;106039;1253;69009;-81
2023/11/13 09:23:37;;;;;;;11.90;10.70;;;;;;;10.24;66.40;99290.33;105836;1257;73780;-79
2023/11/13 09:26:05;;;;;;;10.90;9.80;;;;;;;9.86;66.32;99296.48;105933;1254;60413;-80
2023/11/13 09:28:33;;;;;;;12.40;10.70;;;;;;;9.75;67.69;99289.92;106785;1253;62217;-84
2023/11/13 09:31:01;;;;;;;12.00;10.70;;;;;;;10.02;67.18;99291.26;107137;1253;72524;-80
2023/11/13 09:33:28;;;;;;;11.60;9.50;;;;;;;10.41;67.38;99282.41;106247;1253;72590;-78
2023/11/13 09:35:56;;;;;;;11.30;10.10;;;;;;;10.65;65.59;99293.61;105934;1256;75057;-82
2023/11/13 09:38:24;;;;;;;11.00;9.80;;;;;;;10.65;65.36;99280.03;105984;1253;61957;-80
2023/11/13 09:40:59;;;;;;;10.20;9.20;;;;;;;10.45;64.86;99277.71;106636;1253;60781;-82
2023/11/13 09:43:32;;;;;;;11.70;10.40;;;;;;;10.30;66.04;99275.22;106628;1253;73344;-81
2023/11/13 09:46:04;;;;;;;;;;;;;;;10.25;65.74;99278.89;106230;1253;69221;-81
2023/11/13 09:48:43;;;;;;;11.90;10.50;;;;;;;10.15;65.59;99275.96;106446;1253;74552;-80
2023/11/13 09:51:17;;;;;;;10.00;8.80;;;;;;;10.04;65.15;99279.23;106539;1257;60921;-79
2023/11/13 09:53:58;;;;;;;11.60;10.20;;;;;;;9.71;65.16;99275.15;106493;1253;60812;-80
2023/11/13 09:56:29;;;;;;;11.80;9.90;;;;;;;9.51;66.72;99268.73;106423;1253;74946;-82
2023/11/13 09:58:58;;;;;;;11.60;10.40;;;;;;;9.48;66.83;99270.84;106456;1253;71601;-78
2023/11/13 10:01:26;;;;;;;11.60;10.40;;;;;;;9.52;66.79;99270.94;106586;1257;73101;-80
2023/11/13 10:03:54;;;;;;;12.00;9.00;;;;;;;9.50;66.75;99281.05;106051;1254;60542;-80
2023/11/13 10:06:23;;;;;;;11.20;10.00;;;;;;;9.40;66.61;99272.23;106805;1254;60512;-79
2023/11/13 10:08:53;;;;;;;10.70;9.60;;;;;;;9.33;67.03;99275.31;106615;1256;72630;-78
2023/11/13 10:11:28;;;;;;;10.30;8.20;;;;;;;9.31;67.54;99269.95;106408;1253;70571;-80
2023/11/13 10:14:13;;;;;;;9.60;8.60;;;;;;;9.36;67.26;99268.67;106352;1256;72741;-80
2023/11/13 10:16:41;;;;;;;9.50;8.50;;;;;;;9.41;67.02;99266.50;106174;1256;60657;-81
2023/11/13 10:19:18;;;;;;;9.70;8.60;;;;;;;9.36;67.17;99272.39;106263;1253;60592;-84
2023/11/13 10:21:47;;;;;;;11.00;9.00;;;;;;;9.19;66.51;99270.90;107333;1253;73486;-83
2023/11/13 10:24:21;;;;;;;10.20;9.10;;;;;;;9.02;67.34;99277.94;108338;1254;70343;-85
2023/11/13 10:27:08;;;;;;;10.40;8.40;;;;;;;8.92;67.75;99282.55;108188;1253;73436;-85
2023/11/13 10:29:37;;;;;;;12.80;8.60;;;;;;;8.83;67.95;99275.94;107175;1253;59196;-84
2023/11/13 10:32:04;;;;;;;8.00;6.90;;;;;;;8.82;68.70;99276.23;107376;1253;60480;-84
2023/11/13 10:34:45;;;;;;;8.20;7.00;;;;;;;8.93;68.53;99279.44;106620;1254;76305;-83
2023/11/13 10:37:15;;;;;;;9.30;7.20;;;;;;;8.96;67.64;99284.01;106966;1253;69126;-81
2023/11/13 10:39:47;;;;;;;8.80;7.90;;;;;;;8.85;67.66;99279.95;106538;1254;71433;-78
2023/11/13 10:42:22;;;;;;;8.20;7.40;;;;;;;8.72;67.88;99283.27;106531;1254;61206;-78
2023/11/13 10:44:56;;;;;;;10.10;7.50;;;;;;;8.65;68.43;99275.00;106326;1254;60494;-79
2023/11/13 10:47:31;;;;;;;8.30;7.50;;;;;;;8.63;68.24;99277.23;106079;1254;76068;-82
2023/11/13 10:49:59;;;;;;;9.20;7.60;;;;;;;8.58;67.45;99280.45;106297;1253;71453;-74
2023/11/13 10:52:28;;;;;;;10.00;7.00;;;;;;;8.47;66.91;99286.34;106250;1254;74835;-83
2023/11/13 10:55:01;;;;;;;10.00;6.70;;;;;;;8.35;67.40;99273.73;106498;1257;60703;-79
2023/11/13 10:57:29;;;;;;;8.70;7.80;;;;;;;8.25;67.93;99288.15;106075;1253;60732;-80
2023/11/13 10:59:57;;;;;;;9.40;7.90;;;;;;;8.15;68.26;99284.09;106317;1254;74870;-80
2023/11/13 11:02:44;;;;;;;8.60;6.90;;;;;;;8.09;69.07;99280.86;106444;1254;70865;-79
2023/11/13 11:05:18;;;;;;;8.50;7.40;;;;;;;8.16;70.07;99287.14;106227;1254;75045;-80
2023/11/13 11:07:52;;;;;;;9.30;8.00;;;;;;;8.22;69.94;99292.73;106117;1254;60643;-78
2023/11/13 11:10:24;;;;;;;10.00;8.60;;;;;;;8.17;70.06;99299.71;106153;1254;62347;-79
2023/11/13 11:12:59;;;;;;;10.80;8.90;;;;;;;8.06;70.11;99295.40;106108;1257;74112;-80
2023/11/13 11:15:32;;;;;;;10.50;9.50;;;;;;;8.00;71.24;99294.49;106315;1254;72398;-79
2023/11/13 11:18:11;;;;;;;10.60;8.60;;;;;;;7.96;71.55;99293.83;106379;1254;74984;-80
2023/11/13 11:20:45;;;;;;;8.70;7.20;;;;;;;8.02;71.41;99289.21;106204;1253;60431;-77
2023/11/13 11:23:13;;;;;;;;;;;;;;;8.09;71.41;99301.52;106238;1253;61688;-79
2023/11/13 11:25:48;;;;;;;10.20;8.60;;;;;;;8.01;71.13;99304.75;106163;1254;73978;-84
2023/11/13 11:28:45;;;;;;;10.40;8.50;;;;;;;7.87;71.63;99308.08;106355;1253;70804;-81
2023/11/13 11:31:33;;;;;;;11.50;8.80;;;;;;;7.67;72.10;99317.82;106274;1251;71984;-80
2023/11/13 11:34:01;;;;;;;9.70;8.10;;;;;;;7.62;72.52;99301.08;106245;1254;60859;-77